createdAt,value
2022-07-31T00:00:16.465Z,11.35
2022-07-31T00:02:44.747Z,12.15
2022-07-31T00:05:12.260Z,11.48
2022-07-31T00:07:39.756Z,12.40
2022-07-31T00:10:07.708Z,12.30
2022-07-31T00:12:35.268Z,12.20
2022-07-31T00:15:03.451Z,11.98
2022-07-31T00:17:30.970Z,12.10
2022-07-31T00:19:58.876Z,12.18
2022-07-31T00:22:26.429Z,11.60
2022-07-31T00:24:54.119Z,12.23
2022-07-31T00:27:21.663Z,11.95
2022-07-31T00:29:49.198Z,13.05
2022-07-31T00:32:16.736Z,12.13
2022-07-31T00:34:44.331Z,13.40
2022-07-31T00:37:11.877Z,12.60
2022-07-31T00:39:39.333Z,12.23
2022-07-31T00:42:07.073Z,12.80
2022-07-31T00:44:34.550Z,13.40
2022-07-31T00:47:07.687Z,13.00
2022-07-31T00:49:37.649Z,13.57
2022-07-31T00:52:06.251Z,12.88
2022-07-31T00:54:34.413Z,13.27
2022-07-31T00:57:02.281Z,14.60
2022-07-31T00:59:30.297Z,13.75
2022-07-31T01:01:58.570Z,13.10
2022-07-31T01:04:26.345Z,13.70
2022-07-31T01:06:55.303Z,13.27
2022-07-31T01:09:23.280Z,12.90
2022-07-31T01:11:50.845Z,12.40
2022-07-31T01:14:19.608Z,14.18
2022-07-31T01:16:49.317Z,14.48
2022-07-31T01:19:16.867Z,13.38
2022-07-31T01:21:49.296Z,13.68
2022-07-31T01:24:43.694Z,14.80
2022-07-31T01:27:31.771Z,15.40
2022-07-31T01:30:17.862Z,18.98
2022-07-31T01:32:48.233Z,26.50
2022-07-31T01:35:17.520Z,25.15
2022-07-31T01:37:46.817Z,24.02
2022-07-31T01:40:17.322Z,18.50
2022-07-31T01:42:48.611Z,18.02
2022-07-31T01:45:16.585Z,21.42
2022-07-31T01:47:46.780Z,20.00
2022-07-31T01:50:42.661Z,18.92
2022-07-31T01:53:02.825Z,15.95
2022-07-31T01:56:01.750Z,16.67
2022-07-31T01:58:21.928Z,15.65
2022-07-31T02:00:51.836Z,14.20
2022-07-31T02:03:19.413Z,15.75
2022-07-31T02:06:07.230Z,24.27
2022-07-31T02:08:35.798Z,31.85
2022-07-31T02:11:04.168Z,21.83
2022-07-31T02:13:33.350Z,20.92
2022-07-31T02:16:05.064Z,23.38
2022-07-31T02:18:34.960Z,27.10
2022-07-31T02:21:25.049Z,37.22
2022-07-31T02:23:52.656Z,42.47
2022-07-31T02:26:20.228Z,18.15
2022-07-31T02:28:48.057Z,36.05
2022-07-31T02:31:17.578Z,51.58
2022-07-31T02:33:48.074Z,43.92
2022-07-31T02:36:20.521Z,17.67
2022-07-31T02:38:48.622Z,44.67
2022-07-31T02:41:17.620Z,21.98
2022-07-31T02:43:46.157Z,26.00
2022-07-31T02:46:20.368Z,19.55
2022-07-31T02:48:49.581Z,18.65
2022-07-31T02:51:18.517Z,20.35
2022-07-31T02:53:47.388Z,19.08
2022-07-31T02:56:15.830Z,41.47
2022-07-31T02:58:44.129Z,21.80
2022-07-31T03:01:26.886Z,20.05
2022-07-31T03:03:56.406Z,19.13
2022-07-31T03:06:24.235Z,40.05
2022-07-31T03:08:51.716Z,37.85
2022-07-31T03:11:22.289Z,29.05
2022-07-31T03:13:50.096Z,31.98
2022-07-31T03:16:18.014Z,24.05
2022-07-31T03:18:46.501Z,35.40
2022-07-31T03:21:14.486Z,33.75
2022-07-31T03:23:42.155Z,23.77
2022-07-31T03:26:16.212Z,20.98
2022-07-31T03:28:43.868Z,31.25
2022-07-31T03:31:11.521Z,21.33
2022-07-31T03:33:39.051Z,39.30
2022-07-31T03:36:06.844Z,19.63
2022-07-31T03:38:40.819Z,34.83
2022-07-31T03:41:25.156Z,22.02
2022-07-31T03:43:53.462Z,24.02
2022-07-31T03:46:22.914Z,21.33
2022-07-31T03:48:52.765Z,18.30
2022-07-31T03:51:21.393Z,34.47
2022-07-31T03:53:50.793Z,22.63
2022-07-31T03:56:48.822Z,18.70
2022-07-31T03:59:18.164Z,28.00
2022-07-31T04:02:07.044Z,30.65
2022-07-31T04:04:40.674Z,19.35
2022-07-31T04:07:09.217Z,21.00
2022-07-31T04:09:37.181Z,18.92
2022-07-31T04:12:06.262Z,30.50
2022-07-31T04:14:34.000Z,17.58
2022-07-31T04:17:01.553Z,17.20
2022-07-31T04:19:31.149Z,16.88
2022-07-31T04:22:02.410Z,15.73
2022-07-31T04:24:31.369Z,19.58
2022-07-31T04:27:17.905Z,16.17
2022-07-31T04:29:46.312Z,17.10
2022-07-31T04:32:15.007Z,15.82
2022-07-31T04:35:09.371Z,19.48
2022-07-31T04:37:37.315Z,14.60
2022-07-31T04:40:04.923Z,13.65
2022-07-31T04:42:32.781Z,14.85
2022-07-31T04:45:00.784Z,18.63
2022-07-31T04:47:28.447Z,17.20
2022-07-31T04:49:57.276Z,16.02
2022-07-31T04:52:27.493Z,16.83
2022-07-31T04:55:04.587Z,12.73
2022-07-31T04:57:32.671Z,13.20
2022-07-31T05:00:01.320Z,18.00
2022-07-31T05:02:32.636Z,13.93
2022-07-31T05:05:00.312Z,14.93
2022-07-31T05:07:34.556Z,12.20
2022-07-31T05:10:06.542Z,11.75
2022-07-31T05:12:35.681Z,12.82
2022-07-31T05:15:03.242Z,11.30
2022-07-31T05:17:30.825Z,12.13
2022-07-31T05:20:30.664Z,13.85
2022-07-31T05:23:26.708Z,14.15
2022-07-31T05:26:02.088Z,15.20
2022-07-31T05:28:30.269Z,20.70
2022-07-31T05:30:58.879Z,13.75
2022-07-31T05:33:26.988Z,14.50
2022-07-31T05:35:55.425Z,12.98
2022-07-31T05:38:23.275Z,11.90
2022-07-31T05:41:11.063Z,12.73
2022-07-31T05:43:59.878Z,13.65
2022-07-31T05:46:35.310Z,12.82
2022-07-31T05:49:02.932Z,14.15
2022-07-31T05:51:32.246Z,12.70
2022-07-31T05:54:00.213Z,11.73
2022-07-31T05:56:46.104Z,12.13
2022-07-31T05:59:15.497Z,10.68
2022-07-31T06:01:43.216Z,10.75
2022-07-31T06:04:10.901Z,10.05
2022-07-31T06:06:43.449Z,12.23
2022-07-31T06:09:12.188Z,13.30
2022-07-31T06:11:43.748Z,14.07
2022-07-31T06:14:11.336Z,13.63
2022-07-31T06:17:09.241Z,14.88
2022-07-31T06:19:41.971Z,12.88
2022-07-31T06:22:11.408Z,14.68
2022-07-31T06:24:40.550Z,13.80
2022-07-31T06:27:10.571Z,15.68
2022-07-31T06:29:51.669Z,14.05
2022-07-31T06:32:20.367Z,16.10
2022-07-31T06:34:47.984Z,15.60
2022-07-31T06:37:15.995Z,18.02
2022-07-31T06:39:54.419Z,16.42
2022-07-31T06:42:51.037Z,16.15
2022-07-31T06:45:51.906Z,17.15
2022-07-31T06:48:52.121Z,18.98
2022-07-31T06:51:31.192Z,21.63
2022-07-31T06:54:00.253Z,20.90
2022-07-31T06:56:27.731Z,17.15
2022-07-31T06:58:55.375Z,21.27
2022-07-31T07:01:23.295Z,21.55
2022-07-31T07:03:51.298Z,24.30
2022-07-31T07:06:19.200Z,20.38
2022-07-31T07:08:46.962Z,20.05
2022-07-31T07:11:17.408Z,19.20
2022-07-31T07:13:46.814Z,20.98
2022-07-31T07:16:17.526Z,19.88
2022-07-31T07:18:45.701Z,21.25
2022-07-31T07:21:13.390Z,21.75
2022-07-31T07:23:41.444Z,20.58
2022-07-31T07:26:33.508Z,22.45
2022-07-31T07:29:02.779Z,25.13
2022-07-31T07:31:31.455Z,23.50
2022-07-31T07:33:58.980Z,23.33
2022-07-31T07:36:27.062Z,24.00
2022-07-31T07:39:00.826Z,22.23
2022-07-31T07:41:30.213Z,25.08
2022-07-31T07:43:57.679Z,23.08
2022-07-31T07:46:27.709Z,25.20
2022-07-31T07:48:58.157Z,23.23
2022-07-31T07:51:59.703Z,23.75
2022-07-31T07:54:53.515Z,28.38
2022-07-31T07:57:50.496Z,23.02
2022-07-31T08:00:41.292Z,29.80
2022-07-31T08:03:49.800Z,25.98
2022-07-31T08:05:56.480Z,27.35
2022-07-31T08:08:24.683Z,27.17
2022-07-31T08:11:17.539Z,133.38
2022-07-31T08:14:06.632Z,35.22
2022-07-31T08:16:37.073Z,148.15
2022-07-31T08:19:04.676Z,187.55
2022-07-31T08:21:35.877Z,28.17
2022-07-31T08:24:05.018Z,35.95
2022-07-31T08:26:52.320Z,25.88
2022-07-31T08:29:27.301Z,30.85
2022-07-31T08:32:03.204Z,32.88
2022-07-31T08:34:59.968Z,24.10
2022-07-31T08:37:50.861Z,22.25
2022-07-31T08:40:20.532Z,60.67
2022-07-31T08:42:48.144Z,32.95
2022-07-31T08:45:15.871Z,23.38
2022-07-31T08:47:49.387Z,27.95
2022-07-31T08:50:24.349Z,45.63
2022-07-31T08:52:55.043Z,62.13
2022-07-31T08:55:55.925Z,21.38
2022-07-31T08:58:23.011Z,19.40
2022-07-31T09:00:52.319Z,17.27
2022-07-31T09:03:20.023Z,18.88
2022-07-31T09:05:47.534Z,18.73
2022-07-31T09:08:16.139Z,16.73
2022-07-31T09:10:50.022Z,17.70
2022-07-31T09:13:19.427Z,19.70
2022-07-31T09:15:48.535Z,19.13
2022-07-31T09:18:18.229Z,17.65
2022-07-31T09:20:58.669Z,21.95
2022-07-31T09:23:27.853Z,20.20
2022-07-31T09:25:58.734Z,16.60
2022-07-31T09:28:33.660Z,15.40
2022-07-31T09:31:02.839Z,14.20
2022-07-31T09:33:56.503Z,13.23
2022-07-31T09:36:26.829Z,13.30
2022-07-31T09:39:04.122Z,13.60
2022-07-31T09:41:55.555Z,14.00
2022-07-31T09:44:35.955Z,12.32
2022-07-31T09:47:03.867Z,11.05
2022-07-31T09:49:32.898Z,10.13
2022-07-31T09:52:03.309Z,9.95
2022-07-31T09:54:32.016Z,9.63
2022-07-31T09:56:59.590Z,8.93
2022-07-31T09:59:32.912Z,8.65
2022-07-31T10:02:01.390Z,9.55
2022-07-31T10:04:29.413Z,8.93
2022-07-31T10:06:57.503Z,8.05
2022-07-31T10:09:26.817Z,8.43
2022-07-31T10:12:16.552Z,8.25
2022-07-31T10:14:45.253Z,7.88
2022-07-31T10:17:15.659Z,7.57
2022-07-31T10:20:05.674Z,8.95
2022-07-31T10:23:01.998Z,9.40
2022-07-31T10:25:34.152Z,9.43
2022-07-31T10:28:03.161Z,10.77
2022-07-31T10:30:30.773Z,10.10
2022-07-31T10:33:00.599Z,9.50
2022-07-31T10:35:28.637Z,10.55
2022-07-31T10:38:38.153Z,9.68
2022-07-31T10:41:32.266Z,8.68
2022-07-31T10:44:02.557Z,7.70
2022-07-31T10:46:48.707Z,7.00
2022-07-31T10:49:16.328Z,6.22
2022-07-31T10:52:15.546Z,5.72
2022-07-31T10:55:04.013Z,5.82
2022-07-31T10:57:57.529Z,6.20
2022-07-31T11:00:43.986Z,7.55
2022-07-31T11:03:21.589Z,6.13
2022-07-31T11:06:08.113Z,7.47
2022-07-31T11:08:55.594Z,7.60
2022-07-31T11:11:55.951Z,8.00
2022-07-31T11:14:47.783Z,7.53
2022-07-31T11:18:23.476Z,31.00
2022-07-31T11:20:46.824Z,7.50
2022-07-31T11:23:16.690Z,7.05
2022-07-31T11:25:47.426Z,7.13
2022-07-31T11:28:14.975Z,6.60
2022-07-31T11:30:56.058Z,6.82
2022-07-31T11:33:40.291Z,6.70
2022-07-31T11:36:21.016Z,6.32
2022-07-31T11:38:49.953Z,4.78
2022-07-31T11:41:17.893Z,5.38
2022-07-31T11:43:50.943Z,4.55
2022-07-31T11:46:26.064Z,4.13
2022-07-31T11:48:54.465Z,4.28
2022-07-31T11:51:22.398Z,4.30
2022-07-31T11:53:56.639Z,5.70
2022-07-31T11:56:25.181Z,5.70
2022-07-31T11:58:54.478Z,5.40
2022-07-31T12:01:27.345Z,5.53
2022-07-31T12:03:55.036Z,5.45
2022-07-31T12:06:22.857Z,5.47
2022-07-31T12:08:51.177Z,5.40
2022-07-31T12:11:19.650Z,5.72
2022-07-31T12:13:48.136Z,5.85
2022-07-31T12:16:15.950Z,5.97
2022-07-31T12:18:53.841Z,5.80
2022-07-31T12:21:22.229Z,5.75
2022-07-31T12:23:51.668Z,6.35
2022-07-31T12:26:23.907Z,6.57
2022-07-31T12:28:59.925Z,6.90
2022-07-31T12:31:28.823Z,6.40
2022-07-31T12:33:56.561Z,6.70
2022-07-31T12:36:24.083Z,6.32
2022-07-31T12:39:01.687Z,6.90
2022-07-31T12:41:29.822Z,5.63
2022-07-31T12:44:07.646Z,5.60
2022-07-31T12:46:39.261Z,3.25
2022-07-31T12:49:08.344Z,3.03
2022-07-31T12:51:45.416Z,3.70
2022-07-31T12:54:15.464Z,3.80
2022-07-31T12:56:43.663Z,3.83
2022-07-31T12:59:11.787Z,4.45
2022-07-31T13:01:39.439Z,4.25
2022-07-31T13:04:07.811Z,3.97
2022-07-31T13:06:45.699Z,3.70
2022-07-31T13:09:13.327Z,3.50
2022-07-31T13:11:45.748Z,3.00
2022-07-31T13:14:14.654Z,3.22
2022-07-31T13:16:42.110Z,3.55
2022-07-31T13:19:09.655Z,3.58
2022-07-31T13:21:48.128Z,2.90
2022-07-31T13:24:17.483Z,4.80
2022-07-31T13:26:45.594Z,4.30
2022-07-31T13:29:13.388Z,4.80
2022-07-31T13:31:40.965Z,3.42
2022-07-31T13:34:08.561Z,3.42
2022-07-31T13:36:39.162Z,3.00
2022-07-31T13:39:07.895Z,20.65
2022-07-31T13:41:35.740Z,4.45
2022-07-31T13:44:04.142Z,3.38
2022-07-31T13:46:31.929Z,3.10
2022-07-31T13:49:00.275Z,3.30
2022-07-31T13:51:30.390Z,3.58
2022-07-31T13:54:00.166Z,2.83
2022-07-31T13:56:39.455Z,3.05
2022-07-31T13:59:11.523Z,2.90
2022-07-31T14:02:02.249Z,4.93
2022-07-31T14:04:28.596Z,5.22
2022-07-31T14:07:00.832Z,3.05
2022-07-31T14:09:28.652Z,3.70
2022-07-31T14:11:56.406Z,4.18
2022-07-31T14:14:24.118Z,2.50
2022-07-31T14:16:51.766Z,4.15
2022-07-31T14:19:20.503Z,2.90
2022-07-31T14:21:56.533Z,4.53
2022-07-31T14:24:37.909Z,4.80
2022-07-31T14:27:05.660Z,2.83
2022-07-31T14:29:36.013Z,2.50
2022-07-31T14:32:04.373Z,2.67
2022-07-31T14:34:35.634Z,2.60
2022-07-31T14:37:06.998Z,2.88
2022-07-31T14:39:34.755Z,2.83
2022-07-31T14:42:08.216Z,2.88
2022-07-31T14:44:35.809Z,3.38
2022-07-31T14:47:03.620Z,4.50
2022-07-31T14:50:07.334Z,2.35
2022-07-31T14:52:20.522Z,4.63
2022-07-31T14:54:50.058Z,4.13
2022-07-31T14:57:20.129Z,3.25
2022-07-31T14:59:50.514Z,3.10
2022-07-31T15:02:22.197Z,4.30
2022-07-31T15:04:50.908Z,3.28
2022-07-31T15:07:34.627Z,3.38
2022-07-31T15:12:30.084Z,3.53
2022-07-31T15:14:57.647Z,2.80
2022-07-31T15:17:25.308Z,2.70
2022-07-31T15:19:52.890Z,3.05
2022-07-31T15:22:20.514Z,3.30
2022-07-31T15:24:50.043Z,3.38
2022-07-31T15:27:18.628Z,2.78
2022-07-31T15:30:00.615Z,3.10
2022-07-31T15:32:34.777Z,3.00
2022-07-31T15:35:07.339Z,4.80
2022-07-31T15:37:39.029Z,2.40
2022-07-31T15:40:07.607Z,2.15
2022-07-31T15:42:38.437Z,2.63
2022-07-31T15:45:06.669Z,2.28
2022-07-31T15:47:34.313Z,3.55
2022-07-31T15:50:01.929Z,3.05
2022-07-31T15:52:29.548Z,2.10
2022-07-31T15:54:57.144Z,3.50
2022-07-31T15:57:24.812Z,3.28
2022-07-31T15:59:56.292Z,3.55
2022-07-31T16:02:27.116Z,3.10
2022-07-31T16:05:10.965Z,2.50
2022-07-31T16:08:32.161Z,3.08
2022-07-31T16:10:27.949Z,4.15
2022-07-31T16:12:55.512Z,5.78
2022-07-31T16:15:23.301Z,3.13
2022-07-31T16:17:53.988Z,4.63
2022-07-31T16:20:27.143Z,4.25
2022-07-31T16:23:01.255Z,4.32
2022-07-31T16:27:56.408Z,2.80
2022-07-31T16:30:26.295Z,2.22
2022-07-31T16:32:55.101Z,3.15
2022-07-31T16:35:22.648Z,3.28
2022-07-31T16:37:53.360Z,28.50
2022-07-31T16:40:28.056Z,5.97
2022-07-31T16:42:57.174Z,2.95
2022-07-31T16:45:24.740Z,3.30
2022-07-31T16:47:52.509Z,2.80
2022-07-31T16:50:20.139Z,3.20
2022-07-31T16:52:52.593Z,2.35
2022-07-31T16:57:49.269Z,3.35
2022-07-31T17:00:17.040Z,2.70
2022-07-31T17:02:44.698Z,3.00
2022-07-31T17:05:12.261Z,3.40
2022-07-31T17:07:39.806Z,2.40
2022-07-31T17:10:07.823Z,2.83
2022-07-31T17:12:35.417Z,2.65
2022-07-31T17:15:03.093Z,3.08
2022-07-31T17:17:32.797Z,2.40
2022-07-31T17:20:00.469Z,2.90
2022-07-31T17:22:28.081Z,3.10
2022-07-31T17:24:58.139Z,2.83
2022-07-31T17:27:25.732Z,2.58
2022-07-31T17:29:53.350Z,2.85
2022-07-31T17:32:20.899Z,3.65
2022-07-31T17:34:49.598Z,2.50
2022-07-31T17:37:18.158Z,3.13
2022-07-31T17:39:46.911Z,3.90
2022-07-31T17:42:14.724Z,3.40
2022-07-31T17:44:46.618Z,3.60
2022-07-31T17:47:16.920Z,3.35
2022-07-31T17:49:44.497Z,3.67
2022-07-31T17:52:12.397Z,3.97
2022-07-31T17:54:40.299Z,3.45
2022-07-31T17:57:08.166Z,3.70
2022-07-31T17:59:36.314Z,3.97
2022-07-31T18:02:04.719Z,3.88
2022-07-31T18:04:37.077Z,4.47
2022-07-31T18:07:05.547Z,3.90
2022-07-31T18:09:33.281Z,3.92
2022-07-31T18:12:00.905Z,4.30
2022-07-31T18:14:28.371Z,3.40
2022-07-31T18:16:56.040Z,4.00
2022-07-31T18:19:23.794Z,4.60
2022-07-31T18:21:51.710Z,3.67
2022-07-31T18:24:20.112Z,5.55
2022-07-31T18:26:50.414Z,5.90
2022-07-31T18:29:18.855Z,4.93
2022-07-31T18:31:46.777Z,4.15
2022-07-31T18:34:14.795Z,7.68
2022-07-31T18:36:45.614Z,6.43
2022-07-31T18:39:13.293Z,4.20
2022-07-31T18:41:46.793Z,4.00
2022-07-31T18:44:16.038Z,4.60
2022-07-31T18:46:43.598Z,4.57
2022-07-31T18:50:59.134Z,3.90
2022-07-31T18:51:58.765Z,4.47
2022-07-31T18:54:26.292Z,4.60
2022-07-31T18:56:53.804Z,5.20
2022-07-31T18:59:21.469Z,4.38
2022-07-31T19:01:52.116Z,4.60
2022-07-31T19:04:21.658Z,3.75
2022-07-31T19:06:54.111Z,3.92
2022-07-31T19:09:24.736Z,4.20
2022-07-31T19:11:52.542Z,4.18
2022-07-31T19:14:26.156Z,4.05
2022-07-31T19:16:57.849Z,4.78
2022-07-31T19:19:25.465Z,4.72
2022-07-31T19:21:57.886Z,3.75
2022-07-31T19:24:25.389Z,4.65
2022-07-31T19:26:53.210Z,5.22
2022-07-31T19:29:20.770Z,4.30
2022-07-31T19:31:48.798Z,3.90
2022-07-31T19:34:16.577Z,3.80
2022-07-31T19:36:46.382Z,4.18
2022-07-31T19:39:15.869Z,12.63
2022-07-31T19:41:47.562Z,4.45
2022-07-31T19:44:30.998Z,5.18
2022-07-31T19:46:58.591Z,4.25
2022-07-31T19:49:26.238Z,4.18
2022-07-31T19:51:53.830Z,3.55
2022-07-31T19:54:21.341Z,26.70
2022-07-31T19:56:48.797Z,15.07
2022-07-31T19:59:16.330Z,3.60
2022-07-31T20:01:43.877Z,4.13
2022-07-31T20:04:11.528Z,6.45
2022-07-31T20:06:39.315Z,14.23
2022-07-31T20:09:07.037Z,4.18
2022-07-31T20:11:34.593Z,7.05
2022-07-31T20:14:02.061Z,4.82
2022-07-31T20:16:29.598Z,3.97
2022-07-31T20:18:57.161Z,6.30
2022-07-31T20:21:24.716Z,77.95
2022-07-31T20:23:53.791Z,6.68
2022-07-31T20:26:21.744Z,4.20
2022-07-31T20:28:49.202Z,5.07
2022-07-31T20:31:21.551Z,4.95
2022-07-31T20:33:57.602Z,5.07
2022-07-31T20:36:26.411Z,4.15
2022-07-31T20:38:53.987Z,4.75
2022-07-31T20:41:21.659Z,4.20
2022-07-31T20:43:49.110Z,4.10
2022-07-31T20:46:18.265Z,4.50
2022-07-31T20:48:45.788Z,4.20
2022-07-31T20:51:20.356Z,5.15
2022-07-31T20:56:15.650Z,5.25
2022-07-31T20:58:44.622Z,16.27
2022-07-31T21:01:20.131Z,13.90
2022-07-31T21:03:48.492Z,60.30
2022-07-31T21:06:16.184Z,17.02
2022-07-31T21:08:43.758Z,45.17
2022-07-31T21:11:11.202Z,48.35
2022-07-31T21:13:39.261Z,16.35
2022-07-31T21:16:06.855Z,4.95
2022-07-31T21:18:37.077Z,10.13
2022-07-31T21:21:06.778Z,10.52
2022-07-31T21:23:34.280Z,8.85
2022-07-31T21:26:02.798Z,6.22
2022-07-31T21:28:30.597Z,6.28
2022-07-31T21:30:58.192Z,7.05
2022-07-31T21:33:26.626Z,5.90
2022-07-31T21:35:55.128Z,7.82
2022-07-31T21:38:23.228Z,5.70
2022-07-31T21:40:51.096Z,6.45
2022-07-31T21:43:22.665Z,31.25
2022-07-31T21:45:57.320Z,9.90
2022-07-31T21:48:30.301Z,12.25
2022-07-31T21:50:58.325Z,8.55
2022-07-31T21:53:25.871Z,3.35
2022-07-31T21:55:53.551Z,7.07
2022-07-31T21:58:21.177Z,8.02
2022-07-31T22:00:48.695Z,4.90
2022-07-31T22:03:16.336Z,4.18
2022-07-31T22:06:02.191Z,6.93
2022-07-31T22:08:29.804Z,2.90
2022-07-31T22:10:57.274Z,4.55
2022-07-31T22:13:24.846Z,4.85
2022-07-31T22:15:59.825Z,3.13
2022-07-31T22:18:32.390Z,2.90
2022-07-31T22:21:00.691Z,3.35
2022-07-31T22:23:28.550Z,2.80
2022-07-31T22:25:56.497Z,4.55
2022-07-31T22:28:24.436Z,2.30
2022-07-31T22:30:53.662Z,2.83
2022-07-31T22:33:21.940Z,2.78
2022-07-31T22:35:59.448Z,3.33
2022-07-31T22:38:29.077Z,2.85
2022-07-31T22:40:56.643Z,1.95
2022-07-31T22:44:12.995Z,2.20
2022-07-31T22:46:14.979Z,3.00
2022-07-31T22:48:42.666Z,2.35
2022-07-31T22:51:12.959Z,6.03
2022-07-31T22:53:42.979Z,5.97
2022-07-31T22:56:10.435Z,3.95
2022-07-31T22:58:37.971Z,5.18
2022-07-31T23:01:05.606Z,6.05
2022-07-31T23:03:33.101Z,2.83
2022-07-31T23:06:28.294Z,2.53
2022-07-31T23:08:53.640Z,2.85
2022-07-31T23:11:22.984Z,5.35
2022-07-31T23:13:50.416Z,10.30
2022-07-31T23:16:18.035Z,2.30
2022-07-31T23:18:45.612Z,3.40
2022-07-31T23:21:13.135Z,2.70
2022-07-31T23:23:40.699Z,2.67
2022-07-31T23:26:16.077Z,2.15
2022-07-31T23:28:43.520Z,2.67
2022-07-31T23:31:11.105Z,2.33
2022-07-31T23:33:38.620Z,8.63
2022-07-31T23:36:06.283Z,2.60
2022-07-31T23:38:33.868Z,7.40
2022-07-31T23:41:01.294Z,4.65
2022-07-31T23:43:28.890Z,3.00
2022-07-31T23:45:56.409Z,1.70
2022-07-31T23:48:24.404Z,2.85
2022-07-31T23:51:00.727Z,2.20
2022-07-31T23:53:28.450Z,2.67
2022-07-31T23:55:56.005Z,2.65
2022-07-31T23:58:23.465Z,6.32
